Архив погоды в Тотьме

Метеограмма Тотьма
Понедельник, 18 Июня
Время местн. Темп Ветер Видим Явления Облачность нижн/средн/верх Атм. давл. Влжн Точка росы ВНГО R Сост. почвы Tg s
Напр Скр Прв ур.ст ур.м изм
06:00 +17.8° штиль 0 - 10 км - облачно 751 763 -0.2 73% +12.9° 600 м - Влажная (без луж) - -
03:00 +14.6° штиль 0 - 10 км - облачно с прояснениями 751 763 0 80% +11.1° - - - - -
00:00 +15.6° штиль 0 - 10 км - облачно с прояснениями 751 763 +0.4 77% +11.5° - - - - -
Воскресенье, 17 Июня
Время местн. Темп Ветер Видим Явления Облачность нижн/средн/верх Атм. давл. Влжн Точка росы ВНГО R Сост. почвы Tg s
Напр Скр Прв ур.ст ур.м изм
21:00 +20.8° С-З 1 - 10 км - переменная облачность 751 763 -0.1 56% +11.6° - - - - -
18:00 +24.6° С 2 - 10 км - облачно с прояснениями 751 763 -0.4 39% +9.9° 600 м - - - -
15:00 +26.3° С-З 3 - 10 км - переменная облачность 751 763 -0.7 35% +9.5° 1 км - - - -
12:00 +24.4° З 3 - 10 км - облачно с прояснениями 752 764 -0.5 42% +10.7° 600 м - - - -
09:00 +22.9° З,С-З 1 - 10 км - переменная облачность 753 764 -0.2 52% +12.6° более 2.5 км - - - -
06:00 +18.2° С-З 1 - 10 км - облачно с прояснениями 753 765 +0.2 68% +12.1° 1.5 км - Влажная (без луж) - -
03:00 +13.2° З 1 - 10 км - облачно 753 765 +0.2 80% +9.8° 1.5 км - - - -
00:00 +13.5° З,С-З 1 - 10 км - преимущественно облачно 753 765 +0.4 71% +8.3° - - - - -
Суббота, 16 Июня
Время местн. Темп Ветер Видим Явления Облачность нижн/средн/верх Атм. давл. Влжн Точка росы ВНГО R Сост. почвы Tg s
Напр Скр Прв ур.ст ур.м изм
21:00 +17.3° штиль 0 - 10 км - облачно с прояснениями 752 764 -0.2 63% +10.2° 2.5 км - - - -
18:00 +23.2° Ю 1 - 10 км - переменная облачность 752 764 -0.5 32% +5.6° 2.5 км 0 - - -
15:00 +22.1° Ю 2 - 10 км - переменная облачность 753 765 -0.5 32% +4.6° 2.5 км - - - -
12:00 +21.3° Ю,Ю-З 2 - 10 км - переменная облачность 753 765 -0.5 31% +3.6° 2.5 км - - - -
09:00 +18.3° З,С-З 2 - 10 км - переменная облачность 754 766 -0.2 37% +3.2° более 2.5 км - - - -
06:00 +10.5° штиль 0 - 10 км - переменная облачность 754 766 +0.5 62% +3.5° более 2.5 км - Влажная (без луж) - -
03:00 +4.6° штиль 0 - 10 км - переменная облачность 754 766 +0.8 92% +3.4° 2.5 км - - - -
00:00 +8.4° штиль 0 - 10 км - переменная облачность 753 765 +0.3 75% +4.3° 2.5 км - - - -
Пятница, 15 Июня
Время местн. Темп Ветер Видим Явления Облачность нижн/средн/верх Атм. давл. Влжн Точка росы ВНГО R Сост. почвы Tg s
Напр Скр Прв ур.ст ур.м изм
21:00 +12.9° С,С-З 1 - 10 км - переменная облачность 753 765 +0.4 54% +3.9° - - - - -
18:00 +17° С,С-З 2 - 10 км - преимущественно облачно 752 764 -0.4 30% -0.6° 1.5 км - - - -
15:00 +17.3° З,С-З 3 - 10 км - облачно с прояснениями 753 765 -0.2 30% -0.6° 600 м - - - -
12:00 +15.7° З 4 - 10 км - облачно с прояснениями 753 765 -0.4 33% -0.5° 600 м - - - -
09:00 +13° З,С-З 3 - 10 км - переменная облачность 753 765 +0.1 35% -1.9° 1.5 км - - - -
06:00 +7.9° В 1 - 10 км - ясно 753 765 +0.6 72% +3.1° более 2.5 км 0 Влажная (без луж) +5° -
03:00 +5.1° штиль 0 - 10 км - преимущественно облачно 752 765 +0.5 86% +3° 600 м - - - -